createdAt,value
2018-12-21T00:03:08.362Z,62.60
2018-12-21T00:08:12.722Z,61.50
2018-12-21T00:13:16.978Z,61.50
2018-12-21T00:18:21.499Z,61.50
2018-12-21T00:23:25.687Z,62.50
2018-12-21T00:28:30.155Z,61.30
2018-12-21T00:33:39.399Z,61.00
2018-12-21T00:38:49.175Z,61.20
2018-12-21T00:44:58.876Z,61.20
2018-12-21T00:50:03.193Z,61.20
2018-12-21T00:55:07.055Z,61.80
2018-12-21T01:00:15.447Z,61.10
2018-12-21T01:05:19.506Z,61.10
2018-12-21T01:10:23.656Z,61.00
2018-12-21T01:15:27.370Z,61.00
2018-12-21T01:20:31.755Z,61.00
2018-12-21T01:25:35.607Z,61.00
2018-12-21T01:30:39.127Z,60.80
2018-12-21T01:35:43.353Z,60.80
2018-12-21T01:40:47.298Z,61.00
2018-12-21T01:45:50.807Z,61.00
2018-12-21T01:50:55.319Z,61.00
2018-12-21T01:55:59.517Z,61.00
2018-12-21T02:01:03.355Z,60.90
2018-12-21T02:06:08.431Z,60.80
2018-12-21T02:11:12.371Z,60.80
2018-12-21T02:21:45.256Z,60.80
2018-12-21T02:26:49.244Z,60.70
2018-12-21T02:31:53.140Z,60.80
2018-12-21T02:36:56.751Z,61.40
2018-12-21T02:42:00.962Z,60.70
2018-12-21T02:47:04.752Z,60.80
2018-12-21T02:52:08.679Z,60.80
2018-12-21T02:57:12.690Z,61.60
2018-12-21T03:02:17.518Z,60.80
2018-12-21T03:07:22.077Z,60.80
2018-12-21T03:12:27.204Z,60.80
2018-12-21T03:17:31.366Z,60.80
2018-12-21T03:22:35.679Z,60.80
2018-12-21T03:27:39.540Z,60.90
2018-12-21T03:32:44.099Z,60.80
2018-12-21T03:37:47.955Z,60.80
2018-12-21T03:42:51.468Z,60.80
2018-12-21T03:47:55.899Z,60.80
2018-12-21T03:52:59.783Z,60.80
2018-12-21T03:58:04.185Z,60.80
2018-12-21T04:03:08.268Z,60.70
2018-12-21T04:08:11.944Z,61.50
2018-12-21T04:13:16.215Z,60.60
2018-12-21T04:18:20.927Z,60.70
2018-12-21T04:23:25.130Z,60.70
2018-12-21T04:28:29.818Z,60.80
2018-12-21T04:33:33.952Z,60.80
2018-12-21T04:38:37.816Z,60.90
2018-12-21T04:43:41.738Z,60.90
2018-12-21T04:48:46.686Z,61.10
2018-12-21T04:53:50.616Z,61.10
2018-12-21T04:58:54.335Z,61.20
2018-12-21T05:03:58.194Z,61.10
2018-12-21T05:09:02.023Z,61.20
2018-12-21T05:19:35.081Z,61.20
2018-12-21T05:24:39.977Z,61.10
2018-12-21T05:29:44.996Z,61.20
2018-12-21T05:34:49.913Z,61.30
2018-12-21T05:39:54.692Z,61.30
2018-12-21T05:44:58.471Z,61.50
2018-12-21T05:55:31.347Z,61.70
2018-12-21T06:00:35.062Z,61.80
2018-12-21T06:05:38.651Z,61.90
2018-12-21T06:10:43.428Z,61.90
2018-12-21T06:15:47.049Z,62.00
2018-12-21T06:20:51.077Z,61.90
2018-12-21T06:26:01.389Z,62.10
2018-12-21T06:31:04.979Z,62.00
2018-12-21T06:36:09.220Z,62.00
2018-12-21T06:41:13.201Z,62.10
2018-12-21T06:46:16.796Z,62.30
2018-12-21T06:51:21.798Z,62.30
2018-12-21T06:56:26.475Z,62.30
2018-12-21T07:01:31.162Z,62.30
2018-12-21T07:06:34.744Z,62.30
2018-12-21T07:11:38.389Z,62.30
2018-12-21T07:16:42.816Z,62.50
2018-12-21T07:21:47.273Z,62.40
2018-12-21T07:26:51.440Z,62.40
2018-12-21T07:31:55.327Z,62.40
2018-12-21T07:36:59.587Z,62.50
2018-12-21T07:42:03.075Z,62.40
2018-12-21T07:47:07.678Z,62.40
2018-12-21T07:52:11.297Z,62.60
2018-12-21T07:57:15.363Z,62.50
2018-12-21T08:02:19.464Z,62.60
2018-12-21T08:07:23.323Z,62.60
2018-12-21T08:12:32.333Z,62.60
2018-12-21T08:17:36.463Z,62.60
2018-12-21T08:22:40.567Z,62.60
2018-12-21T08:27:44.750Z,62.70
2018-12-21T08:32:49.339Z,62.80
2018-12-21T08:37:53.903Z,62.70
2018-12-21T08:42:57.688Z,62.80
2018-12-21T08:48:01.698Z,62.80
2018-12-21T08:53:05.939Z,62.80
2018-12-21T08:58:10.288Z,62.90
2018-12-21T09:03:14.809Z,62.90
2018-12-21T09:08:33.245Z,63.10
2018-12-21T09:13:38.146Z,63.10
2018-12-21T09:18:42.833Z,63.10
2018-12-21T09:24:01.060Z,63.20
2018-12-21T09:29:03.506Z,63.30
2018-12-21T09:34:07.995Z,63.40
2018-12-21T09:39:13.205Z,63.40
2018-12-21T09:49:46.869Z,63.50
2018-12-21T09:54:51.843Z,63.50
2018-12-21T09:59:55.892Z,63.60
2018-12-21T10:04:59.948Z,63.60
2018-12-21T10:10:09.049Z,63.60
2018-12-21T10:15:16.487Z,63.60
2018-12-21T10:20:34.452Z,63.60
2018-12-21T10:25:41.639Z,63.90
2018-12-21T10:30:46.121Z,63.80
2018-12-21T10:35:50.537Z,63.90
2018-12-21T10:40:55.418Z,64.10
2018-12-21T10:46:00.111Z,64.10
2018-12-21T10:56:46.657Z,64.20
2018-12-21T11:01:50.982Z,64.40
2018-12-21T11:06:55.091Z,64.30
2018-12-21T11:11:59.530Z,64.60
2018-12-21T11:27:59.460Z,64.80
2018-12-21T11:33:03.732Z,65.60
2018-12-21T11:38:12.234Z,65.10
2018-12-21T11:43:15.886Z,65.20
2018-12-21T11:48:20.363Z,65.40
2018-12-21T11:53:24.221Z,65.60
2018-12-21T11:58:29.205Z,65.70
2018-12-21T12:03:35.084Z,65.80
2018-12-21T12:08:39.025Z,66.70
2018-12-21T12:13:43.252Z,66.20
2018-12-21T12:18:47.838Z,66.20
2018-12-21T12:23:53.987Z,66.40
2018-12-21T12:28:58.075Z,66.50
2018-12-21T12:34:01.974Z,66.70
2018-12-21T12:39:07.384Z,67.00
2018-12-21T12:44:21.084Z,67.00
2018-12-21T12:49:25.023Z,67.20
2018-12-21T12:54:28.860Z,67.10
2018-12-21T12:59:34.003Z,67.20
2018-12-21T13:04:37.714Z,67.40
2018-12-21T13:09:42.443Z,67.50
2018-12-21T13:25:46.119Z,67.50
2018-12-21T13:30:50.138Z,67.50
2018-12-21T13:35:54.212Z,67.40
2018-12-21T13:46:27.463Z,67.40
2018-12-21T13:51:31.783Z,67.30
2018-12-21T13:56:35.965Z,67.30
2018-12-21T14:01:40.778Z,67.30
2018-12-21T14:06:57.920Z,67.30
2018-12-21T14:12:01.572Z,67.40
2018-12-21T14:17:05.771Z,67.50
2018-12-21T14:22:09.595Z,67.30
2018-12-21T14:27:13.178Z,67.20
2018-12-21T14:32:35.515Z,67.10
2018-12-21T14:37:39.603Z,67.00
2018-12-21T14:43:06.076Z,66.70
2018-12-21T14:48:09.845Z,66.60
2018-12-21T14:58:42.039Z,66.40
2018-12-21T15:14:59.855Z,65.60
2018-12-21T15:20:04.688Z,65.40
2018-12-21T15:30:40.519Z,65.60
2018-12-21T15:35:44.487Z,64.40
2018-12-21T15:40:48.695Z,64.30
2018-12-21T15:45:52.286Z,64.30
2018-12-21T15:50:58.377Z,64.20
2018-12-21T15:56:02.325Z,64.30
2018-12-21T16:01:06.606Z,64.10
2018-12-21T16:06:11.516Z,64.20
2018-12-21T16:16:50.484Z,64.20
2018-12-21T16:21:54.896Z,64.20
2018-12-21T16:26:59.977Z,64.00
2018-12-21T16:32:03.694Z,64.00
2018-12-21T16:37:07.319Z,64.00
2018-12-21T16:42:30.975Z,63.90
2018-12-21T16:47:35.795Z,63.70
2018-12-21T16:52:40.352Z,63.70
2018-12-21T16:57:45.259Z,63.60
2018-12-21T17:02:49.304Z,63.70
2018-12-21T17:07:53.392Z,63.50
2018-12-21T17:12:57.804Z,63.30
2018-12-21T17:18:01.882Z,63.20
2018-12-21T17:23:05.586Z,63.10
2018-12-21T17:28:09.627Z,63.10
2018-12-21T17:33:13.975Z,62.80
2018-12-21T17:38:18.083Z,62.80
2018-12-21T17:43:22.316Z,62.70
2018-12-21T17:48:25.975Z,62.70
2018-12-21T17:53:42.202Z,62.60
2018-12-21T17:58:46.504Z,62.50
2018-12-21T18:04:00.029Z,62.40
2018-12-21T18:09:08.006Z,62.00
2018-12-21T18:14:12.875Z,62.00
2018-12-21T18:19:17.580Z,62.00
2018-12-21T18:24:29.625Z,61.80
2018-12-21T18:29:35.208Z,62.00
2018-12-21T18:35:00.719Z,62.10
2018-12-21T18:40:07.386Z,62.10
2018-12-21T18:45:11.739Z,61.90
2018-12-21T18:50:16.034Z,61.80
2018-12-21T18:55:20.359Z,61.80
2018-12-21T19:00:24.238Z,61.70
2018-12-21T19:10:55.783Z,61.80
2018-12-21T19:15:59.739Z,61.80
2018-12-21T19:21:22.875Z,61.80
2018-12-21T19:26:26.736Z,61.30
2018-12-21T19:31:31.243Z,61.50
2018-12-21T19:36:35.488Z,61.50
2018-12-21T19:41:39.265Z,61.70
2018-12-21T19:46:43.717Z,61.80
2018-12-21T19:51:47.299Z,61.90
2018-12-21T19:57:09.994Z,61.90
2018-12-21T20:02:14.264Z,62.10
2018-12-21T20:07:17.944Z,62.30
2018-12-21T20:12:21.839Z,62.10
2018-12-21T20:17:26.655Z,62.30
2018-12-21T20:22:31.410Z,62.10
2018-12-21T20:27:35.278Z,62.00
2018-12-21T20:32:38.863Z,61.90
2018-12-21T20:37:42.940Z,61.80
2018-12-21T20:42:46.846Z,61.80
2018-12-21T20:47:50.859Z,61.60
2018-12-21T20:52:57.195Z,61.50
2018-12-21T20:58:06.596Z,61.70
2018-12-21T21:03:11.548Z,61.50
2018-12-21T21:08:16.341Z,61.50
2018-12-21T21:13:20.450Z,61.60
2018-12-21T21:18:24.173Z,61.60
2018-12-21T21:23:28.964Z,61.50
2018-12-21T21:28:32.944Z,61.50
2018-12-21T21:33:37.716Z,61.60
2018-12-21T21:38:52.957Z,61.60
2018-12-21T21:43:56.497Z,61.70
2018-12-21T21:49:00.828Z,61.80
2018-12-21T21:54:04.948Z,61.90
2018-12-21T21:59:09.145Z,62.00
2018-12-21T22:04:12.743Z,62.10
2018-12-21T22:09:17.384Z,62.40
2018-12-21T22:14:22.127Z,62.60
2018-12-21T22:19:28.439Z,62.70
2018-12-21T22:24:32.123Z,62.70
2018-12-21T22:29:36.395Z,62.70
2018-12-21T22:34:40.923Z,62.80
2018-12-21T22:39:44.531Z,62.70
2018-12-21T22:44:49.740Z,62.90
2018-12-21T22:49:53.772Z,63.00
2018-12-21T22:54:58.230Z,62.90
2018-12-21T23:00:13.153Z,63.00
2018-12-21T23:05:18.059Z,62.90
2018-12-21T23:10:22.598Z,63.00
2018-12-21T23:15:26.756Z,63.10
2018-12-21T23:20:30.659Z,63.10
2018-12-21T23:25:35.725Z,63.00
2018-12-21T23:30:39.879Z,63.00
2018-12-21T23:35:43.823Z,62.90
2018-12-21T23:40:47.856Z,62.80
2018-12-21T23:45:51.721Z,62.80
2018-12-21T23:50:55.989Z,62.70
2018-12-21T23:56:00.216Z,62.50
